Time;durP1;ratioP1;P1;durP2;ratioP2;P2;SDS_P1;SDS_P2;PMS_P1;PMS_P2;Temp;Humidity;BMP_temperature;BMP_pressure;BME280_temperature;BME280_humidity;BME280_pressure;Samples;Min_cycle;Max_cycle;Signal;HPM_P1;HPM_P2
2022/09/17 00:03:27;;;;;;;3.12;1.20;;;20.90;81.50;;;;;;10868354;32;20038;-70
2022/09/17 00:09:29;;;;;;;3.87;1.08;;;20.80;81.80;;;;;;10868048;32;20054;-71
2022/09/17 00:15:31;;;;;;;2.25;0.70;;;20.80;82.10;;;;;;10867885;32;20061;-71
2022/09/17 00:21:33;;;;;;;2.05;1.02;;;20.40;81.80;;;;;;10867882;32;20046;-68
2022/09/17 00:27:35;;;;;;;2.37;1.05;;;20.40;82.20;;;;;;10866793;32;20023;-69
2022/09/17 00:33:37;;;;;;;2.42;1.58;;;20.30;82.10;;;;;;10867382;32;20352;-72
2022/09/17 00:39:39;;;;;;;4.35;1.02;;;20.40;82.60;;;;;;10863997;32;20023;-72
2022/09/17 00:45:41;;;;;;;1.85;0.75;;;20.40;82.70;;;;;;10867401;32;20442;-73
2022/09/17 00:51:52;;;;;;;0.65;0.50;;;20.40;83.20;;;;;;10867198;32;20027;-72
2022/09/17 00:57:57;;;;;;;0.88;0.80;;;20.20;83.00;;;;;;10866068;32;20016;-71
2022/09/17 01:03:59;;;;;;;0.65;0.65;;;20.30;82.90;;;;;;10863503;32;20024;-71
2022/09/17 01:10:22;;;;;;;0.60;0.60;;;20.20;82.80;;;;;;10852541;32;20066;-72
2022/09/17 01:16:38;;;;;;;0.93;0.68;;;20.20;83.20;;;;;;10829821;33;20024;-73
2022/09/17 01:23:12;;;;;;;0.70;0.60;;;20.10;83.30;;;;;;10829670;33;20064;-70
2022/09/17 01:29:33;;;;;;;0.47;0.40;;;20.20;83.10;;;;;;10713208;33;20322;-71
2022/09/17 01:35:49;;;;;;;0.60;0.50;;;20.10;83.20;;;;;;10715568;33;20040;-71
2022/09/17 01:41:55;;;;;;;0.55;0.50;;;20.10;83.10;;;;;;10715493;33;20047;-72
2022/09/17 01:48:06;;;;;;;0.57;0.57;;;20.00;82.70;;;;;;10715234;33;20357;-72
2022/09/17 01:54:27;;;;;;;0.40;0.40;;;19.90;82.90;;;;;;10722511;33;20333;-72
2022/09/17 02:00:30;;;;;;;5.90;0.70;;;19.90;83.00;;;;;;10723387;33;20021;-71
2022/09/17 02:06:39;;;;;;;0.75;0.37;;;19.90;83.10;;;;;;10821926;32;20020;-70
2022/09/17 02:12:50;;;;;;;5.40;0.85;;;19.80;83.20;;;;;;10835184;32;20352;-72
2022/09/17 02:19:23;;;;;;;0.70;0.70;;;19.60;83.20;;;;;;10834916;32;20051;-71
2022/09/17 02:25:35;;;;;;;0.40;0.40;;;19.40;83.50;;;;;;10831220;32;20066;-71
2022/09/17 02:31:38;;;;;;;0.30;0.30;;;19.60;83.60;;;;;;10834513;32;20020;-71
2022/09/17 02:37:41;;;;;;;1.25;0.70;;;19.70;83.30;;;;;;10834451;32;20099;-70
2022/09/17 02:44:14;;;;;;;0.45;0.45;;;19.70;83.20;;;;;;10830070;33;20028;-71
2022/09/17 02:50:50;;;;;;;0.57;0.55;;;19.70;83.00;;;;;;10834019;32;20336;-70
2022/09/17 02:57:19;;;;;;;0.47;0.47;;;19.70;83.00;;;;;;10819291;32;20028;-71
2022/09/17 03:03:41;;;;;;;0.55;0.55;;;19.70;82.80;;;;;;10828715;32;20024;-71
2022/09/17 03:09:43;;;;;;;0.40;0.40;;;19.60;82.90;;;;;;10844759;32;20020;-71
2022/09/17 03:15:46;;;;;;;1.08;0.50;;;19.50;82.70;;;;;;10833016;32;20336;-72
2022/09/17 03:21:48;;;;;;;0.70;0.70;;;19.20;83.30;;;;;;10832896;32;20015;-72
2022/09/17 03:27:51;;;;;;;0.75;0.70;;;19.20;83.70;;;;;;10832622;32;20047;-72
2022/09/17 03:33:53;;;;;;;0.60;0.60;;;19.20;83.80;;;;;;10832350;32;20043;-72
2022/09/17 03:39:55;;;;;;;0.50;0.50;;;19.10;83.80;;;;;;10832257;32;20020;-72
2022/09/17 03:45:57;;;;;;;0.43;0.43;;;19.00;83.80;;;;;;10832030;32;20019;-72
2022/09/17 03:51:59;;;;;;;1.00;0.80;;;19.00;83.80;;;;;;10831686;32;20054;-73
2022/09/17 03:58:01;;;;;;;0.70;0.70;;;18.90;83.70;;;;;;10831401;32;20450;-73
2022/09/17 04:04:03;;;;;;;0.62;0.62;;;18.70;83.40;;;;;;10827203;33;20412;-72
2022/09/17 04:10:06;;;;;;;0.57;0.57;;;18.60;83.40;;;;;;10831127;32;20020;-73
2022/09/17 04:16:08;;;;;;;0.52;0.52;;;18.50;83.20;;;;;;10830728;32;20020;-73
2022/09/17 04:22:11;;;;;;;1.17;0.62;;;18.40;83.10;;;;;;10830899;32;20047;-73
2022/09/17 04:28:13;;;;;;;0.80;0.80;;;18.50;83.30;;;;;;10830419;32;20174;-73
2022/09/17 04:34:15;;;;;;;0.43;0.43;;;18.50;83.60;;;;;;10830197;32;20316;-73
2022/09/17 04:40:29;;;;;;;0.75;0.75;;;18.60;84.10;;;;;;10827231;32;20031;-72
2022/09/17 04:46:49;;;;;;;0.82;0.70;;;18.60;83.90;;;;;;10825721;32;20091;-72
2022/09/17 04:52:51;;;;;;;0.93;0.90;;;18.60;84.10;;;;;;10825758;32;20032;-73
2022/09/17 04:58:53;;;;;;;3.55;0.80;;;18.50;84.40;;;;;;10826046;32;20019;-74
2022/09/17 05:04:55;;;;;;;0.85;0.75;;;18.40;84.60;;;;;;10825562;33;20055;-72
2022/09/17 05:11:06;;;;;;;0.88;0.88;;;18.40;85.00;;;;;;10826147;32;20040;-72
2022/09/17 05:17:08;;;;;;;0.77;0.77;;;18.30;84.90;;;;;;10825417;33;20020;-72
2022/09/17 05:23:11;;;;;;;0.50;0.50;;;18.20;84.80;;;;;;10825761;32;20363;-71
2022/09/17 05:29:28;;;;;;;0.80;0.80;;;18.30;84.80;;;;;;10832175;32;20027;-71
2022/09/17 05:35:31;;;;;;;0.70;0.70;;;18.30;84.50;;;;;;10832502;32;20038;-71
2022/09/17 05:41:58;;;;;;;0.88;0.85;;;18.40;84.50;;;;;;10832099;32;20047;-71
2022/09/17 05:48:02;;;;;;;1.55;1.02;;;18.50;84.10;;;;;;10834125;32;20020;-71
2022/09/17 05:54:04;;;;;;;3.50;0.98;;;18.30;84.30;;;;;;10835857;32;20031;-70
2022/09/17 06:00:07;;;;;;;0.80;0.77;;;18.30;84.30;;;;;;10834362;32;20094;-69
2022/09/17 06:06:14;;;;;;;1.02;0.80;;;18.30;84.10;;;;;;10835450;32;20043;-70
2022/09/17 06:12:16;;;;;;;3.15;0.90;;;18.30;84.00;;;;;;10846756;27;20054;-71
2022/09/17 06:18:18;;;;;;;1.65;0.90;;;18.30;83.90;;;;;;10872219;32;20024;-72
2022/09/17 06:24:38;;;;;;;1.75;0.77;;;18.50;83.90;;;;;;10871897;32;20051;-71
2022/09/17 06:30:40;;;;;;;0.77;0.77;;;18.50;84.20;;;;;;10870813;32;20027;-71
2022/09/17 06:36:42;;;;;;;1.85;0.98;;;18.40;84.30;;;;;;10870448;32;20019;-71
2022/09/17 06:42:44;;;;;;;1.05;0.85;;;18.30;84.60;;;;;;10871299;32;20020;-71
2022/09/17 06:48:46;;;;;;;2.05;0.90;;;18.30;84.70;;;;;;10870933;32;20054;-70
2022/09/17 06:54:48;;;;;;;0.80;0.80;;;18.40;84.40;;;;;;10870898;32;20426;-70
2022/09/17 07:00:50;;;;;;;1.58;0.80;;;18.40;84.10;;;;;;10870534;32;20403;-71
2022/09/17 07:07:01;;;;;;;1.55;0.95;;;18.20;84.40;;;;;;10870327;32;20058;-71
2022/09/17 07:13:06;;;;;;;1.90;1.23;;;18.20;84.70;;;;;;10870112;32;20043;-72
2022/09/17 07:19:09;;;;;;;2.08;1.20;;;18.00;84.10;;;;;;10870094;32;20024;-70
2022/09/17 07:25:36;;;;;;;0.93;0.80;;;17.80;84.40;;;;;;10868390;32;20019;-71
2022/09/17 07:31:38;;;;;;;2.50;1.20;;;17.60;84.50;;;;;;10869655;32;20059;-71
2022/09/17 07:37:39;;;;;;;1.10;1.00;;;17.50;84.70;;;;;;10869507;32;20050;-71
2022/09/17 07:43:42;;;;;;;1.23;1.12;;;17.50;84.70;;;;;;10864875;32;20046;-71
2022/09/17 07:49:44;;;;;;;0.95;0.85;;;17.70;84.80;;;;;;10867587;32;20019;-71
2022/09/17 07:55:58;;;;;;;1.52;1.20;;;17.80;84.80;;;;;;10869967;32;20024;-71
2022/09/17 08:02:20;;;;;;;2.15;1.00;;;17.70;84.90;;;;;;10868596;32;20042;-71
2022/09/17 08:08:22;;;;;;;1.48;1.37;;;17.80;84.60;;;;;;10791168;33;20052;-71
2022/09/17 08:14:25;;;;;;;2.35;1.48;;;17.60;84.60;;;;;;10790103;33;20035;-74
2022/09/17 08:20:26;;;;;;;1.00;0.90;;;17.40;84.90;;;;;;10490873;33;10003398;-72
2022/09/17 08:26:29;;;;;;;1.05;0.95;;;17.40;85.10;;;;;;10786764;33;20024;-71
2022/09/17 08:32:31;;;;;;;1.60;1.00;;;17.50;85.10;;;;;;10788554;33;20055;-72
2022/09/17 08:38:39;;;;;;;1.48;1.27;;;17.40;85.00;;;;;;10789265;33;20047;-71
2022/09/17 08:44:44;;;;;;;0.93;0.82;;;17.40;84.80;;;;;;10842473;32;20392;-71
2022/09/17 08:50:50;;;;;;;1.67;1.40;;;17.50;85.00;;;;;;10866004;32;20050;-72
2022/09/17 08:57:10;;;;;;;1.15;1.02;;;17.50;84.70;;;;;;10866873;32;20019;-71
2022/09/17 09:03:33;;;;;;;1.55;0.98;;;17.30;84.90;;;;;;10866419;32;20038;-71
2022/09/17 09:09:50;;;;;;;0.73;0.73;;;17.50;84.80;;;;;;10866501;32;20032;-71
2022/09/17 09:16:19;;;;;;;0.70;0.70;;;17.50;84.50;;;;;;10866640;32;20297;-72
2022/09/17 09:22:48;;;;;;;0.90;0.90;;;17.40;84.50;;;;;;10862765;32;20058;-72
2022/09/17 09:29:18;;;;;;;1.67;1.17;;;17.60;84.50;;;;;;10866286;32;20020;-72
2022/09/17 09:35:24;;;;;;;1.00;1.00;;;17.70;84.50;;;;;;10866417;32;20012;-72
2022/09/17 09:41:48;;;;;;;0.77;0.77;;;17.70;84.50;;;;;;10865365;32;20011;-72
2022/09/17 09:47:49;;;;;;;0.75;0.75;;;17.60;84.40;;;;;;10866040;32;20019;-73
2022/09/17 09:54:43;;;;;;;0.90;0.90;;;17.60;84.40;;;;;;10865798;32;20332;-73
2022/09/17 10:00:47;;;;;;;2.15;0.95;;;17.60;84.40;;;;;;10865899;32;20047;-75
2022/09/17 10:06:52;;;;;;;0.82;0.82;;;17.50;84.00;;;;;;10864752;32;20046;-73
2022/09/17 10:13:13;;;;;;;0.80;0.80;;;17.30;83.90;;;;;;10868457;32;20050;-73
2022/09/17 10:19:24;;;;;;;0.80;0.80;;;17.50;83.90;;;;;;10871559;32;20030;-74
2022/09/17 10:25:55;;;;;;;0.93;0.80;;;17.50;83.80;;;;;;10871941;32;20024;-74
2022/09/17 10:32:21;;;;;;;0.73;0.73;;;17.40;83.10;;;;;;10871770;32;20019;-74
2022/09/17 10:38:48;;;;;;;0.82;0.75;;;17.40;83.60;;;;;;10871611;32;20396;-73
2022/09/17 10:45:26;;;;;;;0.82;0.82;;;17.40;83.40;;;;;;10871377;32;20375;-74
2022/09/17 10:51:28;;;;;;;0.62;0.62;;;17.50;83.50;;;;;;10871216;32;20054;-74
2022/09/17 10:58:08;;;;;;;0.82;0.80;;;17.40;83.40;;;;;;10870963;32;20016;-74
2022/09/17 11:04:42;;;;;;;0.57;0.57;;;17.30;83.30;;;;;;10776984;33;20028;-74
2022/09/17 11:11:07;;;;;;;1.27;0.90;;;17.50;83.20;;;;;;10793374;33;20047;-74
2022/09/17 11:17:30;;;;;;;0.60;0.60;;;17.70;83.30;;;;;;10791383;33;20063;-74
2022/09/17 11:23:50;;;;;;;0.70;0.70;;;17.80;83.30;;;;;;10791345;33;20336;-73
2022/09/17 11:30:01;;;;;;;0.73;0.73;;;17.80;83.60;;;;;;10789667;33;20055;-74
2022/09/17 11:36:28;;;;;;;0.62;0.62;;;18.00;83.60;;;;;;10807124;32;20020;-74
2022/09/17 11:42:37;;;;;;;1.50;1.08;;;18.20;83.60;;;;;;10869303;32;20329;-74
2022/09/17 11:49:07;;;;;;;1.17;1.02;;;18.30;83.40;;;;;;10869130;32;20110;-73
2022/09/17 11:55:30;;;;;;;1.58;0.95;;;18.30;83.50;;;;;;10861707;32;20355;-73
2022/09/17 12:01:45;;;;;;;0.47;0.47;;;18.30;83.90;;;;;;10868734;32;20054;-73
2022/09/17 12:08:20;;;;;;;0.80;0.80;;;18.40;84.50;;;;;;10867632;32;20051;-73
2022/09/17 12:15:12;;;;;;;1.35;0.93;;;18.70;84.00;;;;;;10868842;32;20019;-72
2022/09/17 12:21:20;;;;;;;0.70;0.70;;;18.80;83.40;;;;;;10868396;32;20070;-72
2022/09/17 12:27:21;;;;;;;0.60;0.60;;;18.80;83.10;;;;;;10857490;32;20024;-72
2022/09/17 12:33:57;;;;;;;0.60;0.60;;;18.80;82.80;;;;;;10850520;32;20028;-72
2022/09/17 12:40:13;;;;;;;0.68;0.68;;;18.90;82.30;;;;;;10789784;33;20051;-72
2022/09/17 12:46:39;;;;;;;0.70;0.65;;;18.90;82.40;;;;;;10788990;33;20051;-72
2022/09/17 12:53:10;;;;;;;1.30;0.90;;;18.90;81.10;;;;;;10789131;33;20024;-72
2022/09/17 12:59:18;;;;;;;0.60;0.60;;;19.00;81.70;;;;;;10784050;33;20059;-72
2022/09/17 13:06:01;;;;;;;0.60;0.60;;;19.00;80.20;;;;;;10788991;33;20028;-71
2022/09/17 13:12:10;;;;;;;0.88;0.62;;;19.00;80.40;;;;;;10789912;33;20324;-71
2022/09/17 13:18:21;;;;;;;0.60;0.60;;;19.00;80.50;;;;;;10828300;32;20035;-70
2022/09/17 13:24:26;;;;;;;0.80;0.80;;;19.00;80.00;;;;;;10826325;33;20029;-71
2022/09/17 13:31:07;;;;;;;0.47;0.47;;;19.00;79.20;;;;;;10829409;33;20078;-71
2022/09/17 13:37:19;;;;;;;0.50;0.50;;;19.00;78.70;;;;;;10829335;32;20016;-72
2022/09/17 13:43:26;;;;;;;0.50;0.50;;;19.00;77.00;;;;;;10829329;33;20024;-74
2022/09/17 13:49:28;;;;;;;0.70;0.70;;;19.00;76.90;;;;;;10834849;32;20379;-72
2022/09/17 13:55:38;;;;;;;0.82;0.65;;;19.10;75.70;;;;;;10836208;32;20016;-73
2022/09/17 14:02:27;;;;;;;0.75;0.57;;;19.10;74.20;;;;;;10836380;32;20054;-73
2022/09/17 14:09:26;;;;;;;0.85;0.70;;;19.10;75.10;;;;;;10854388;32;20118;-74
2022/09/17 14:16:00;;;;;;;0.40;0.40;;;19.40;73.80;;;;;;10828960;27;20070;-72
2022/09/17 14:22:25;;;;;;;2.12;0.70;;;19.60;74.60;;;;;;10815513;33;20024;-73
2022/09/17 14:28:30;;;;;;;2.00;0.85;;;19.60;73.50;;;;;;10831234;32;20426;-72
2022/09/17 14:34:56;;;;;;;3.97;0.75;;;19.60;73.10;;;;;;10830882;32;20023;-72
2022/09/17 14:41:13;;;;;;;0.50;0.50;;;19.60;72.50;;;;;;10830754;32;20028;-72
2022/09/17 14:47:19;;;;;;;3.28;0.98;;;19.80;72.70;;;;;;10831577;32;20020;-73
2022/09/17 14:53:22;;;;;;;0.50;0.50;;;19.80;73.00;;;;;;10835409;32;20046;-73
2022/09/17 14:59:45;;;;;;;1.58;0.80;;;20.00;73.20;;;;;;10831777;32;20312;-71
2022/09/17 15:05:49;;;;;;;3.85;0.82;;;20.20;71.40;;;;;;10833670;32;20032;-73
2022/09/17 15:11:57;;;;;;;0.40;0.40;;;20.20;71.70;;;;;;10833308;32;20037;-72
2022/09/17 15:18:06;;;;;;;0.77;0.57;;;20.30;71.40;;;;;;10833092;32;20426;-73
2022/09/17 15:24:21;;;;;;;1.45;0.60;;;20.50;71.90;;;;;;10833023;32;20310;-73
2022/09/17 15:30:24;;;;;;;0.70;0.70;;;21.00;70.70;;;;;;10832714;32;20430;-72
2022/09/17 15:36:28;;;;;;;0.95;0.73;;;21.40;70.30;;;;;;10832795;32;20396;-73
2022/09/17 15:42:30;;;;;;;0.68;0.50;;;21.60;69.00;;;;;;10831321;32;20031;-73
2022/09/17 15:48:36;;;;;;;0.82;0.47;;;21.90;69.00;;;;;;10832151;32;20028;-72
2022/09/17 15:54:39;;;;;;;1.30;0.93;;;21.90;68.00;;;;;;10831915;32;20082;-72
2022/09/17 16:00:41;;;;;;;0.70;0.52;;;21.30;68.60;;;;;;10827490;32;20058;-73
2022/09/17 16:06:53;;;;;;;3.33;1.20;;;20.90;69.20;;;;;;10831439;32;20423;-73
2022/09/17 16:12:55;;;;;;;1.10;0.82;;;20.70;68.50;;;;;;10831165;32;20439;-71
2022/09/17 16:18:57;;;;;;;1.55;1.08;;;20.80;68.30;;;;;;10830988;32;20028;-73
2022/09/17 16:24:59;;;;;;;0.80;0.80;;;20.60;69.30;;;;;;10830581;32;20086;-73
2022/09/17 16:31:01;;;;;;;3.15;0.80;;;20.40;69.00;;;;;;10830694;32;20043;-74
2022/09/17 16:37:03;;;;;;;2.22;0.93;;;20.00;69.50;;;;;;10829456;32;20031;-73
2022/09/17 16:43:07;;;;;;;1.95;0.95;;;19.80;70.40;;;;;;10830509;32;20340;-73
2022/09/17 16:49:09;;;;;;;3.40;1.12;;;19.80;70.20;;;;;;10830176;32;20428;-74
2022/09/17 16:55:14;;;;;;;1.25;1.00;;;19.60;70.30;;;;;;10830070;32;20423;-73
2022/09/17 17:01:16;;;;;;;1.08;0.98;;;19.40;70.00;;;;;;10829957;32;20028;-72
2022/09/17 17:14:18;;;;;;;0.80;0.80;;;19.10;70.50;;;;;;10826167;33;20036;-74
2022/09/17 17:20:20;;;;;;;1.35;0.90;;;18.90;70.90;;;;;;10814595;32;20032;-74
2022/09/17 17:26:22;;;;;;;2.95;1.35;;;18.80;71.80;;;;;;10828879;32;20040;-74
2022/09/17 17:32:24;;;;;;;1.52;1.17;;;18.80;71.80;;;;;;10832511;32;20036;-73
2022/09/17 17:38:27;;;;;;;1.95;0.90;;;18.70;72.00;;;;;;10832493;32;20051;-74
2022/09/17 17:44:29;;;;;;;1.83;1.20;;;18.60;72.60;;;;;;10832155;32;20487;-73
2022/09/17 17:50:32;;;;;;;1.02;0.98;;;18.50;72.60;;;;;;10837123;32;20032;-75
2022/09/17 17:56:34;;;;;;;7.10;1.30;;;18.30;72.80;;;;;;10831830;32;20024;-75
2022/09/17 18:02:39;;;;;;;1.48;1.02;;;18.40;73.30;;;;;;10835874;32;20028;-74
2022/09/17 18:08:43;;;;;;;2.20;1.58;;;18.40;73.70;;;;;;10835599;32;20297;-75
2022/09/17 18:14:45;;;;;;;2.62;1.30;;;18.50;74.50;;;;;;10835378;32;20032;-75
2022/09/17 18:20:47;;;;;;;1.02;0.93;;;18.50;74.90;;;;;;10835362;32;20333;-76
2022/09/17 18:26:49;;;;;;;1.55;1.02;;;18.60;75.50;;;;;;10831150;32;20043;-75
2022/09/17 18:32:52;;;;;;;1.08;0.93;;;18.60;75.70;;;;;;10834468;32;20062;-75
2022/09/17 18:39:00;;;;;;;0.85;0.85;;;18.50;75.90;;;;;;10834627;32;20058;-75
2022/09/17 18:45:03;;;;;;;0.98;0.90;;;18.40;76.20;;;;;;10834372;32;20024;-74
2022/09/17 18:51:20;;;;;;;1.40;1.15;;;18.30;76.30;;;;;;10833062;32;20055;-74
2022/09/17 18:57:22;;;;;;;1.30;1.20;;;18.30;76.70;;;;;;10831433;32;20051;-74
2022/09/17 19:03:24;;;;;;;5.78;1.87;;;18.20;76.60;;;;;;10833699;32;20308;-74
2022/09/17 19:09:43;;;;;;;1.50;1.40;;;18.00;76.70;;;;;;10811264;32;20076;-74
2022/09/17 19:16:09;;;;;;;1.20;1.10;;;18.10;77.00;;;;;;10798498;33;20028;-73
2022/09/17 19:22:11;;;;;;;1.08;0.98;;;18.10;77.10;;;;;;10832199;32;20424;-75
2022/09/17 19:28:14;;;;;;;1.83;1.33;;;18.10;77.20;;;;;;10832879;32;20331;-75
2022/09/17 19:34:19;;;;;;;4.95;1.65;;;18.10;77.40;;;;;;10832531;32;20036;-75
2022/09/17 19:40:21;;;;;;;2.17;1.77;;;18.10;77.50;;;;;;10831644;32;20054;-75
2022/09/17 19:46:25;;;;;;;1.25;1.15;;;18.00;77.60;;;;;;10831783;32;20046;-75
2022/09/17 19:52:27;;;;;;;1.60;1.20;;;18.00;77.60;;;;;;10831741;32;20023;-75
2022/09/17 19:58:29;;;;;;;1.20;1.10;;;17.90;77.90;;;;;;10827787;32;20407;-75
2022/09/17 20:04:32;;;;;;;1.58;1.40;;;18.00;78.40;;;;;;10831727;32;20332;-75
2022/09/17 20:10:36;;;;;;;2.83;1.60;;;17.90;78.80;;;;;;10827324;32;20032;-74
2022/09/17 20:16:39;;;;;;;2.55;1.70;;;17.90;78.50;;;;;;10831218;32;20054;-74
2022/09/17 20:22:40;;;;;;;1.75;1.50;;;17.80;78.80;;;;;;10830960;32;20043;-75
2022/09/17 20:28:43;;;;;;;1.80;1.42;;;17.80;79.10;;;;;;10829351;32;20039;-75
2022/09/17 20:34:45;;;;;;;1.30;1.10;;;17.70;79.10;;;;;;10830643;32;20446;-75
2022/09/17 20:40:49;;;;;;;3.83;1.80;;;17.70;79.10;;;;;;10830156;32;20023;-73
2022/09/17 20:46:51;;;;;;;1.55;1.08;;;17.70;79.00;;;;;;10827823;32;20443;-72
2022/09/17 20:52:53;;;;;;;2.25;1.10;;;17.50;78.60;;;;;;10830073;32;20050;-72
2022/09/17 20:59:03;;;;;;;4.40;1.80;;;17.30;77.60;;;;;;10829356;32;20024;-73
2022/09/17 21:05:08;;;;;;;3.20;1.50;;;17.00;77.20;;;;;;10829652;32;20427;-73
2022/09/17 21:11:11;;;;;;;1.30;1.20;;;16.90;77.30;;;;;;10828320;32;20032;-74
2022/09/17 21:17:21;;;;;;;2.42;1.45;;;16.80;76.40;;;;;;10826765;32;20046;-72
2022/09/17 21:23:24;;;;;;;2.62;1.80;;;16.80;76.30;;;;;;10830589;33;20023;-75
2022/09/17 21:29:28;;;;;;;2.70;1.42;;;16.70;77.00;;;;;;10828462;33;20050;-74
2022/09/17 21:35:31;;;;;;;1.33;1.23;;;16.70;78.20;;;;;;10829161;33;20090;-74
2022/09/17 21:41:33;;;;;;;1.12;1.05;;;16.80;78.50;;;;;;10828157;33;20028;-73
2022/09/17 21:47:35;;;;;;;0.77;0.77;;;16.80;79.10;;;;;;10829453;33;20328;-74
2022/09/17 21:53:37;;;;;;;1.08;1.08;;;17.00;79.10;;;;;;10827389;33;20028;-74
2022/09/17 21:59:39;;;;;;;3.22;1.70;;;16.80;78.80;;;;;;10826926;32;20036;-74
2022/09/17 22:05:41;;;;;;;1.20;1.10;;;16.70;79.30;;;;;;10827648;32;20055;-74
2022/09/17 22:11:43;;;;;;;1.40;0.90;;;16.70;79.70;;;;;;10846772;27;20040;-74
2022/09/17 22:17:49;;;;;;;1.37;1.10;;;16.80;79.90;;;;;;10872084;32;20046;-74
2022/09/17 22:23:53;;;;;;;2.03;1.30;;;16.80;79.90;;;;;;10871847;32;20015;-74
2022/09/17 22:29:55;;;;;;;1.90;1.25;;;16.80;80.10;;;;;;10870460;32;20058;-74
2022/09/17 22:36:05;;;;;;;1.50;1.35;;;16.70;80.00;;;;;;10871591;32;20016;-75
2022/09/17 22:42:07;;;;;;;1.70;1.55;;;16.70;80.20;;;;;;10871129;32;20433;-73
2022/09/17 22:48:10;;;;;;;2.05;1.70;;;16.70;80.40;;;;;;10869903;32;20051;-73
2022/09/17 22:54:18;;;;;;;1.50;1.37;;;16.70;80.30;;;;;;10870506;32;20050;-73
2022/09/17 23:00:20;;;;;;;1.90;1.62;;;16.70;80.10;;;;;;10866155;32;20499;-73
2022/09/17 23:06:25;;;;;;;2.25;1.50;;;16.70;80.20;;;;;;10866996;32;20016;-73
2022/09/17 23:12:26;;;;;;;2.72;2.10;;;16.70;80.50;;;;;;10866566;32;20028;-73
2022/09/17 23:18:29;;;;;;;2.10;1.58;;;16.70;80.90;;;;;;10865681;32;20044;-73
2022/09/17 23:24:33;;;;;;;2.42;1.80;;;16.60;80.60;;;;;;10869724;32;20070;-73
2022/09/17 23:30:55;;;;;;;1.90;1.60;;;16.40;80.70;;;;;;10865836;32;20035;-73
2022/09/17 23:37:08;;;;;;;3.00;2.22;;;16.40;81.20;;;;;;10868529;32;20027;-73
2022/09/17 23:43:10;;;;;;;2.65;1.62;;;16.40;80.90;;;;;;10868922;32;20340;-73
2022/09/17 23:49:13;;;;;;;1.30;1.20;;;16.30;80.70;;;;;;10867797;32;20024;-74
2022/09/17 23:55:15;;;;;;;2.35;1.85;;;16.30;81.00;;;;;;10865511;32;20024;-74
